< < Back
Terminal Aerodrome Forecast


Current Version              Previous Versions:   1  2  3  4  5  6  7  8  9  

Terminal Aerodrome Forecast

281
FTUS42 KCAE 200600 AAA
TAFAGS
TAF AMD
KAGS 200652Z 2007/2106 00000KT 3SM BR SCT002
      TEMPO 2008/2011 1SM BR BKN002
     FM201200 VRB03KT P6SM SKC
     FM201700 21005KT P6SM FEW035=



Latest METAR

973
SAUS70 KWBC 200800 RRJ
MTRAGS
METAR KAGS 200753Z AUTO 00000KT 10SM FEW003 06/05 A3012 RMK AO2 SLP199
T00560050


USA.gov is the U.S. government's official web portal to all federal, state and local government web resources and services.